Airfield :
LOGIN :

Register | Disclaimer

   EN    FR    IT 

 










Legend :    VFR   Marginal VFR   IFR   Intensive IFR   Very Intensive IFR
Visi :
Ceiling :
>= 8 km
>= 3000ft
5 to 8 km
1000 to 3000 ft
1500m to 5 km
500 to 1000 ft
800 to 1500m
200 to 500 ft
< 800m
< 200 ft
Symbols :   Thunderstorms  Fog  Heavy snow  Heavy precipitations  Wind > 20 kt
SIGMETs :     Misc.  Thunderstorms  Icing  Turbulence  Mountain Waves  Volcanic Ashes







- Airport Elevation : 1079 ft


ETIK - Illesheim Air Base

CURRENT METAR :
  • 170756Z AUTO 00000KT 9999 CLR 00/00 A3040 RMK AO2 SLP316 T10021002 FZRANO $

EXPIRED METARs :
  • 170656Z AUTO 00000KT 9000 BR CLR M03/M03 A3039 RMK AO2 SLP314 T10301030 FZRANO $
  • 170556Z AUTO 04003KT 9000 BR CLR M03/M03 A3037 RMK AO2 SLP307 T10271027 11007 21044 58005 FZRANO $

TAF AMD TAF ETIK
Valid from the 16 at 17:00 until the 17 at 20:00 UTC


161701Z 1617/1720 10009KT 9999 FEW020 QNH3033INS
BECMG 1622/1623 08012G18KT 8000 BR SKC QNH3035INS
BECMG 1708/1709 09015G20KT 9999 NSW FEW015 QNH3034INS TX09/1714Z TNM03/1704Z LAST NO AMDS AFT 1617 NEXT 1822
No reported NOTAMs for that airfield.



MET'MAP, your aeronautical weather chart ! - Copyright ORBIFLY December 2007 - Disclaimer

ORBIFLY MET'MAP TEAM :

Programming & Development : Alexandra Zaïnal
Concept & Development : Baudouin d'Aumeries
Co-Development & Prog : Marc-Olivier Méhu
Technical & hardware support : Manuel Goepfert

Contact : metmap@orbifly.com




SOURCES & CREDITS :

   NOAA